Time;durP1;ratioP1;P1;durP2;ratioP2;P2;SDS_P1;SDS_P2;PMS_P1;PMS_P2;Temp;Humidity;BMP_temperature;BMP_pressure;BME280_temperature;BME280_humidity;BME280_pressure;Samples;Min_cycle;Max_cycle;Signal;HPM_P1;HPM_P2
2021/09/27 00:04:57;;;;;;;1361.80;43.90;;;;;;;15.20;68.80;99992.25;10430856;28;20049;-63
2021/09/27 00:09:59;;;;;;;686.88;28.30;;;;;;;15.25;68.89;99992.72;10430380;28;20497;-63
2021/09/27 00:15:06;;;;;;;226.55;12.55;;;;;;;15.18;68.84;99988.91;10430394;28;20517;-63
2021/09/27 00:20:09;;;;;;;530.17;16.40;;;;;;;15.16;68.43;99977.66;10429832;28;20067;-63
2021/09/27 00:25:12;;;;;;;153.75;11.13;;;;;;;15.06;68.77;99981.97;10429855;28;20405;-63
2021/09/27 00:30:15;;;;;;;216.80;12.35;;;;;;;15.16;68.49;99982.91;10429583;28;20055;-63
2021/09/27 00:35:21;;;;;;;518.97;25.58;;;;;;;14.96;68.71;99984.44;10427871;28;20056;-63
2021/09/27 00:40:27;;;;;;;131.10;12.57;;;;;;;14.99;69.06;99972.84;10429536;28;20052;-63
2021/09/27 00:45:34;;;;;;;476.67;15.48;;;;;;;15.05;68.69;99980.25;10427729;28;21032;-63
2021/09/27 00:50:40;;;;;;;207.32;11.65;;;;;;;15.17;68.78;99979.31;10428853;28;20144;-63
2021/09/27 00:55:42;;;;;;;372.63;14.23;;;;;;;15.21;68.26;99975.47;10428485;28;20052;-62
2021/09/27 01:00:44;;;;;;;389.10;15.10;;;;;;;15.22;68.34;99972.75;10428049;28;20052;-63
2021/09/27 01:06:08;;;;;;;473.05;18.73;;;;;;;15.09;68.23;99979.91;10428086;28;20622;-63
2021/09/27 01:11:35;;;;;;;426.48;15.45;;;;;;;14.96;68.86;99988.88;10428861;28;20052;-64
2021/09/27 01:17:01;;;;;;;436.08;17.02;;;;;;;14.93;68.30;99981.22;10426046;28;20067;-63
2021/09/27 01:22:30;;;;;;;236.73;12.35;;;;;;;14.94;68.30;99977.63;10428259;28;20619;-63
2021/09/27 01:27:55;;;;;;;362.92;22.33;;;;;;;14.88;68.25;99980.75;10397455;28;20053;-63
2021/09/27 01:33:03;;;;;;;327.08;18.05;;;;;;;14.93;68.21;99965.41;10427278;28;20052;-63
2021/09/27 01:38:10;;;;;;;477.65;22.20;;;;;;;14.73;68.24;99981.91;10427311;28;20049;-63
2021/09/27 01:43:29;;;;;;;197.40;11.85;;;;;;;14.64;68.44;99979.94;10427186;28;20408;-63
2021/09/27 01:48:37;;;;;;;387.50;18.52;;;;;;;14.65;68.24;99966.69;10426437;28;20053;-63
2021/09/27 01:54:09;;;;;;;279.45;10.05;;;;;;;14.41;68.19;99976.41;10425773;28;20052;-63
2021/09/27 01:59:21;;;;;;;475.83;16.85;;;;;;;14.46;68.50;99984.78;10389696;28;20053;-63
2021/09/27 02:05:00;;;;;;;718.10;22.00;;;;;;;14.29;68.53;99974.66;10430566;28;20061;-63
2021/09/27 02:10:20;;;;;;;370.88;13.13;;;;;;;14.44;68.83;99973.53;10433656;28;20048;-63
2021/09/27 02:15:35;;;;;;;929.17;37.20;;;;;;;14.56;68.57;99973.50;10433780;28;20055;-63
2021/09/27 02:20:44;;;;;;;652.53;19.48;;;;;;;14.65;68.23;99971.13;10433619;28;20059;-63
2021/09/27 02:25:47;;;;;;;553.65;16.33;;;;;;;14.76;67.86;99969.34;10433180;28;20547;-62
2021/09/27 02:30:53;;;;;;;446.00;16.15;;;;;;;14.79;68.00;99979.66;10433452;28;20055;-63
2021/09/27 02:36:36;;;;;;;397.75;14.63;;;;;;;14.76;67.93;99979.03;10433075;28;20782;-63
2021/09/27 02:41:54;;;;;;;568.45;17.55;;;;;;;14.80;67.88;99975.22;10273229;28;20400;-63
2021/09/27 02:46:57;;;;;;;392.50;12.38;;;;;;;14.86;67.86;99970.31;10414375;28;20052;-63
2021/09/27 02:52:02;;;;;;;226.23;8.55;;;;;;;14.83;67.84;99970.56;10441452;28;20507;-63
2021/09/27 02:57:25;;;;;;;314.58;9.77;;;;;;;14.83;67.82;99970.56;10440344;28;20059;-63
2021/09/27 03:02:46;;;;;;;353.27;11.57;;;;;;;14.79;67.90;99981.44;10439208;28;20071;-62
2021/09/27 03:08:26;;;;;;;466.13;13.90;;;;;;;14.68;67.85;99974.34;10436141;28;20057;-63
2021/09/27 03:13:30;;;;;;;203.77;9.68;;;;;;;14.77;68.08;99981.56;10432875;28;20325;-63
2021/09/27 03:18:43;;;;;;;586.08;20.15;;;;;;;14.77;67.42;99978.91;10434259;28;20053;-63
2021/09/27 03:24:06;;;;;;;531.83;21.70;;;;;;;14.76;67.38;99974.59;10432655;28;20056;-64
2021/09/27 03:29:30;;;;;;;292.45;12.82;;;;;;;14.71;67.67;99966.22;10432885;28;20143;-63
2021/09/27 03:34:43;;;;;;;360.70;13.30;;;;;;;14.57;67.83;99969.88;10432998;28;20049;-63
2021/09/27 03:39:58;;;;;;;221.98;9.48;;;;;;;14.61;68.03;99965.25;10432204;28;20059;-63
2021/09/27 03:45:07;;;;;;;189.18;10.15;;;;;;;14.63;68.05;99980.91;10432487;28;20477;-63
2021/09/27 03:50:33;;;;;;;181.10;13.02;;;;;;;14.66;67.93;99970.13;10431308;28;20159;-63
2021/09/27 03:55:47;;;;;;;118.25;8.40;;;;;;;14.75;68.08;99972.94;10432453;28;20049;-63
2021/09/27 04:00:59;;;;;;;166.25;9.85;;;;;;;14.74;67.87;99973.03;10431889;28;20052;-63
2021/09/27 04:06:06;;;;;;;70.30;8.05;;;;;;;14.80;68.04;99977.84;10430569;28;20049;-63
2021/09/27 04:11:34;;;;;;;134.07;10.82;;;;;;;14.81;67.88;99971.63;10430692;28;20053;-63
2021/09/27 04:16:44;;;;;;;150.32;12.95;;;;;;;14.82;67.74;99962.78;10430672;28;20335;-63
2021/09/27 04:21:57;;;;;;;302.27;16.00;;;;;;;14.74;68.26;99965.97;10430506;28;20063;-63
2021/09/27 04:27:19;;;;;;;227.98;15.27;;;;;;;14.77;67.83;99955.22;10430898;28;20049;-63
2021/09/27 04:32:50;;;;;;;184.82;14.65;;;;;;;14.68;68.13;99957.69;10428686;28;20140;-63
2021/09/27 04:37:53;;;;;;;161.25;11.35;;;;;;;14.74;68.06;99954.59;10426573;28;20064;-63
2021/09/27 04:43:13;;;;;;;193.50;14.20;;;;;;;14.74;68.12;99955.44;10429965;28;20048;-63
2021/09/27 04:48:40;;;;;;;113.97;9.90;;;;;;;14.74;68.22;99959.88;10430073;28;20245;-63
2021/09/27 04:53:54;;;;;;;208.93;14.02;;;;;;;14.81;67.93;99966.34;10429021;28;20065;-63
2021/09/27 04:59:10;;;;;;;158.02;11.20;;;;;;;14.74;68.07;99960.72;10429634;28;20234;-63
2021/09/27 05:04:27;;;;;;;84.75;10.93;;;;;;;14.82;67.98;99968.88;10429639;28;20141;-64
2021/09/27 05:09:47;;;;;;;131.40;14.60;;;;;;;14.80;68.18;99972.59;10429463;28;20500;-63
2021/09/27 05:15:02;;;;;;;112.75;10.50;;;;;;;14.73;68.04;99971.38;10428310;28;20041;-62
2021/09/27 05:20:13;;;;;;;165.85;13.30;;;;;;;14.82;67.87;99968.06;10429458;28;20053;-63
2021/09/27 05:25:18;;;;;;;69.50;10.93;;;;;;;14.81;67.91;99967.19;10428555;28;20049;-63
2021/09/27 05:30:31;;;;;;;117.25;11.93;;;;;;;14.90;67.48;99963.03;10426416;28;20052;-63
2021/09/27 05:35:55;;;;;;;150.95;11.90;;;;;;;14.80;67.79;99967.31;10428028;28;20146;-62
2021/09/27 05:41:02;;;;;;;72.25;9.30;;;;;;;14.82;67.82;99975.94;10427197;28;20056;-63
2021/09/27 05:46:22;;;;;;;65.93;10.98;;;;;;;14.77;67.72;99973.66;10427957;28;20425;-63
2021/09/27 05:51:40;;;;;;;60.33;10.30;;;;;;;14.82;67.67;99970.69;10427537;28;20515;-62
2021/09/27 05:56:45;;;;;;;57.80;10.93;;;;;;;14.86;67.44;99962.41;10419461;28;20049;-63
2021/09/27 06:02:01;;;;;;;28.40;9.93;;;;;;;14.96;67.12;99954.66;10421357;28;20057;-63
2021/09/27 06:07:37;;;;;;;304.38;19.02;;;;;;;14.87;66.67;99953.56;10424271;28;20135;-63
2021/09/27 06:12:44;;;;;;;179.73;11.63;;;;;;;14.96;66.67;99952.84;10423449;28;20405;-63
2021/09/27 06:17:49;;;;;;;248.65;12.45;;;;;;;14.71;66.94;99960.97;10423827;28;20049;-63
2021/09/27 06:23:26;;;;;;;225.50;13.60;;;;;;;14.64;67.10;99958.88;10425352;28;20497;-63
2021/09/27 06:28:27;;;;;;;507.42;24.25;;;;;;;14.63;67.21;99962.50;10397061;28;20056;-63
2021/09/27 06:33:46;;;;;;;333.92;14.57;;;;;;;14.53;67.37;99951.84;10425525;28;20049;-63
2021/09/27 06:38:53;;;;;;;184.20;9.73;;;;;;;14.77;67.29;99951.75;10424505;28;20056;-63
2021/09/27 06:43:55;;;;;;;686.15;30.15;;;;;;;14.80;67.04;99954.16;10425241;28;20048;-63
2021/09/27 06:48:56;;;;;;;326.65;16.52;;;;;;;14.95;67.10;99955.59;10425028;28;20053;-62
2021/09/27 06:53:58;;;;;;;372.33;15.20;;;;;;;15.22;66.53;99956.94;10425410;28;20045;-63
2021/09/27 06:59:05;;;;;;;426.15;17.00;;;;;;;15.43;66.01;99955.22;10419545;28;20095;-63
2021/09/27 07:04:07;;;;;;;192.70;12.10;;;;;;;15.61;65.59;99942.44;10422684;28;20057;-62
2021/09/27 07:09:10;;;;;;;502.70;22.70;;;;;;;15.62;65.22;99941.47;10422934;28;20146;-63
2021/09/27 07:14:12;;;;;;;110.45;10.23;;;;;;;15.69;65.41;99952.34;10422400;28;20048;-62
2021/09/27 07:19:14;;;;;;;72.25;9.55;;;;;;;15.64;65.70;99952.72;10422703;28;20183;-63
2021/09/27 07:24:15;;;;;;;95.90;9.68;;;;;;;15.77;65.48;99955.22;10425755;28;20489;-63
2021/09/27 07:29:17;;;;;;;86.40;9.77;;;;;;;15.97;65.09;99976.38;10428058;28;20081;-63
2021/09/27 07:34:20;;;;;;;79.07;8.73;;;;;;;16.06;64.63;99969.53;10430517;28;20091;-63
2021/09/27 07:39:24;;;;;;;44.22;8.43;;;;;;;15.85;65.05;99972.09;10429941;28;20056;-63
2021/09/27 07:44:26;;;;;;;23.33;10.30;;;;;;;15.74;65.28;99974.75;10429113;28;20319;-63
2021/09/27 07:49:28;;;;;;;9.32;6.60;;;;;;;15.80;65.45;99968.97;10426630;28;20049;-64
2021/09/27 07:54:30;;;;;;;12.43;8.90;;;;;;;15.97;64.69;99963.19;10423226;28;20038;-63
2021/09/27 07:59:33;;;;;;;7.78;5.97;;;;;;;16.79;62.95;99959.78;10416802;28;20048;-66
2021/09/27 08:04:36;;;;;;;6.65;5.95;;;;;;;17.49;61.61;99961.66;10419244;28;20408;-67
2021/09/27 08:09:37;;;;;;;7.55;6.07;;;;;;;17.54;61.09;99965.59;10426084;28;20057;-67
2021/09/27 08:14:40;;;;;;;7.68;6.60;;;;;;;17.31;62.03;99958.81;10426602;28;20143;-67
2021/09/27 08:19:45;;;;;;;6.85;5.93;;;;;;;17.12;61.82;99956.06;10429670;28;20067;-66
2021/09/27 08:24:48;;;;;;;6.95;6.22;;;;;;;17.12;61.60;99956.06;10428339;28;20049;-66
2021/09/27 08:29:50;;;;;;;6.00;5.22;;;;;;;17.68;61.56;99943.22;10428599;28;20044;-67
2021/09/27 08:34:53;;;;;;;8.55;5.32;;;;;;;18.07;59.70;99931.72;10426770;28;20045;-67
2021/09/27 08:39:56;;;;;;;6.65;5.07;;;;;;;18.46;59.70;99940.50;10428165;28;20484;-66
2021/09/27 08:45:10;;;;;;;5.65;4.75;;;;;;;18.82;58.69;99934.44;10427583;28;20049;-67
2021/09/27 08:50:32;;;;;;;6.93;5.90;;;;;;;18.84;57.92;99934.28;10427396;28;20136;-66
2021/09/27 08:55:36;;;;;;;6.90;4.95;;;;;;;18.72;58.28;99925.66;10425795;28;20049;-67
2021/09/27 09:00:43;;;;;;;6.88;4.90;;;;;;;18.75;58.32;99935.97;10425928;28;20053;-66
2021/09/27 09:05:50;;;;;;;8.57;6.43;;;;;;;18.95;57.99;99926.16;10423856;28;20047;-66
2021/09/27 09:11:13;;;;;;;8.02;6.13;;;;;;;19.38;56.80;99919.28;10428299;28;20067;-66
2021/09/27 09:16:17;;;;;;;8.88;7.30;;;;;;;18.79;59.00;99931.25;10425310;28;20049;-67
2021/09/27 09:21:22;;;;;;;7.43;6.30;;;;;;;18.52;59.96;99916.09;10423683;28;20045;-67
2021/09/27 09:26:28;;;;;;;8.02;6.43;;;;;;;19.05;59.80;99909.28;10426124;28;20057;-66
2021/09/27 09:31:34;;;;;;;8.35;6.90;;;;;;;19.72;57.18;99905.41;10424440;28;20424;-67
2021/09/27 09:36:39;;;;;;;10.15;6.55;;;;;;;20.63;55.61;99902.41;10424266;28;20056;-67
2021/09/27 09:41:54;;;;;;;10.48;6.90;;;;;;;20.72;55.15;99907.63;10425021;28;20417;-66
2021/09/27 09:47:14;;;;;;;8.77;6.57;;;;;;;20.98;54.75;99900.47;10423392;28;20143;-66
2021/09/27 09:52:25;;;;;;;7.60;6.68;;;;;;;21.16;54.13;99899.56;10423390;28;20049;-67
2021/09/27 09:57:27;;;;;;;7.55;6.22;;;;;;;21.60;54.22;99893.06;10425180;28;20143;-66
2021/09/27 10:02:30;;;;;;;10.80;5.38;;;;;;;21.86;53.96;99880.50;10424989;28;20424;-67
2021/09/27 10:07:46;;;;;;;8.40;5.32;;;;;;;21.84;52.78;99885.16;10423996;28;20071;-67
2021/09/27 10:12:50;;;;;;;7.47;4.97;;;;;;;21.61;54.03;99889.44;10422206;28;20520;-67
2021/09/27 10:18:20;;;;;;;6.47;4.22;;;;;;;21.40;53.86;99884.53;10424016;28;20371;-67
2021/09/27 10:23:38;;;;;;;5.45;3.72;;;;;;;21.53;53.87;99886.75;10423529;28;20044;-67
2021/09/27 10:28:41;;;;;;;7.82;3.83;;;;;;;21.67;53.79;99891.44;10425322;28;20052;-66
2021/09/27 10:34:08;;;;;;;5.28;3.72;;;;;;;21.69;52.37;99873.47;10423629;28;20068;-66
2021/09/27 10:39:13;;;;;;;5.75;3.33;;;;;;;21.85;52.92;99866.34;10424448;28;20080;-66
2021/09/27 10:44:18;;;;;;;6.03;3.70;;;;;;;22.00;51.49;99873.69;10425170;28;20045;-66
2021/09/27 10:49:30;;;;;;;5.68;3.60;;;;;;;22.16;50.72;99869.22;10424510;28;20098;-66
2021/09/27 10:54:56;;;;;;;7.38;4.22;;;;;;;22.50;49.72;99869.84;10423855;28;20067;-66
2021/09/27 11:00:03;;;;;;;7.45;4.60;;;;;;;22.85;49.00;99870.47;10428460;28;20067;-66
2021/09/27 11:05:40;;;;;;;8.38;4.20;;;;;;;23.02;48.13;99858.75;10431231;28;20076;-66
2021/09/27 11:10:46;;;;;;;7.72;4.43;;;;;;;23.00;48.30;99850.91;10432653;28;20073;-66
2021/09/27 11:15:55;;;;;;;7.55;4.60;;;;;;;23.08;46.94;99858.03;10431666;28;20496;-66
2021/09/27 11:20:59;;;;;;;6.65;4.53;;;;;;;22.61;48.18;99856.19;10431217;28;20064;-67
2021/09/27 11:26:20;;;;;;;8.23;4.93;;;;;;;22.15;49.28;99862.22;10432725;28;20481;-66
2021/09/27 11:31:27;;;;;;;7.18;5.20;;;;;;;21.58;50.34;99863.97;10431482;28;20045;-66
2021/09/27 11:36:47;;;;;;;9.52;5.20;;;;;;;21.44;50.87;99842.47;10414511;28;20053;-66
2021/09/27 11:42:22;;;;;;;6.60;5.20;;;;;;;21.67;50.39;99840.88;10430848;28;20049;-67
2021/09/27 11:47:42;;;;;;;6.93;5.15;;;;;;;21.64;50.20;99835.88;10386405;28;20049;-66
2021/09/27 11:53:06;;;;;;;6.90;5.10;;;;;;;21.71;50.26;99837.72;10431230;28;20051;-67
2021/09/27 11:58:29;;;;;;;6.63;4.60;;;;;;;21.71;50.39;99827.06;10430920;28;20520;-67
2021/09/27 12:04:13;;;;;;;6.82;4.40;;;;;;;21.71;49.73;99828.88;10428330;28;20049;-68
2021/09/27 12:09:41;;;;;;;9.95;4.20;;;;;;;21.95;49.64;99831.56;10428952;28;20486;-68
2021/09/27 12:14:45;;;;;;;6.63;4.18;;;;;;;21.97;49.44;99832.22;10427106;28;20603;-68
2021/09/27 12:19:58;;;;;;;6.45;4.40;;;;;;;22.02;49.27;99832.56;10429982;28;20208;-68
2021/09/27 12:25:07;;;;;;;6.70;4.22;;;;;;;21.97;48.93;99836.72;10429609;28;20386;-68
2021/09/27 12:30:14;;;;;;;6.82;4.63;;;;;;;22.00;48.84;99839.06;10425019;28;20439;-68
2021/09/27 12:35:24;;;;;;;5.82;4.35;;;;;;;21.95;48.97;99836.03;10428278;28;20051;-68
2021/09/27 12:40:37;;;;;;;6.93;4.38;;;;;;;21.76;49.08;99827.38;10428662;28;20764;-68
2021/09/27 12:45:43;;;;;;;5.80;4.10;;;;;;;21.72;49.37;99831.38;10427036;28;20055;-67
2021/09/27 12:50:52;;;;;;;6.00;3.95;;;;;;;21.73;49.36;99832.22;10442333;28;20045;-68
2021/09/27 12:55:55;;;;;;;7.97;4.00;;;;;;;22.07;48.91;99835.59;10425729;28;20045;-67
2021/09/27 13:01:00;;;;;;;7.00;4.22;;;;;;;22.37;48.31;99826.88;10425737;28;20055;-68
2021/09/27 13:06:12;;;;;;;8.70;4.60;;;;;;;22.46;48.29;99827.72;10426506;28;20137;-67
2021/09/27 13:11:35;;;;;;;8.98;4.70;;;;;;;22.40;48.44;99823.06;10427785;28;20163;-68
2021/09/27 13:16:39;;;;;;;8.13;4.70;;;;;;;22.57;48.08;99827.34;10412759;28;20555;-67
2021/09/27 13:21:47;;;;;;;5.82;4.50;;;;;;;22.88;47.20;99816.78;10424808;28;20689;-67
2021/09/27 13:27:09;;;;;;;7.45;4.20;;;;;;;22.96;46.84;99820.25;10426311;28;20079;-67
2021/09/27 13:32:10;;;;;;;6.32;4.15;;;;;;;23.08;47.23;99823.38;10423157;28;20055;-68
2021/09/27 13:37:29;;;;;;;7.05;4.07;;;;;;;22.97;46.46;99826.41;10422856;28;20090;-68
2021/09/27 13:42:47;;;;;;;7.63;4.30;;;;;;;22.84;46.87;99823.47;10423910;28;20045;-68
2021/09/27 13:47:49;;;;;;;6.20;4.32;;;;;;;22.74;47.51;99820.19;10424438;28;20154;-67
2021/09/27 13:53:00;;;;;;;5.93;4.30;;;;;;;22.48;47.70;99813.22;10424008;28;20045;-75
2021/09/27 13:58:02;;;;;;;5.88;3.70;;;;;;;22.10;48.50;99823.78;10425259;28;20057;-66
2021/09/27 14:03:04;;;;;;;6.88;4.22;;;;;;;22.03;49.13;99820.94;10426075;28;20508;-66
2021/09/27 14:08:09;;;;;;;5.50;4.03;;;;;;;21.93;49.55;99825.56;10425576;28;20060;-66
2021/09/27 14:13:13;;;;;;;6.85;3.92;;;;;;;21.82;49.56;99829.38;10426324;28;20063;-66
2021/09/27 14:18:15;;;;;;;5.70;3.33;;;;;;;21.96;49.69;99830.56;10425201;28;20056;-66
2021/09/27 14:23:17;;;;;;;6.38;3.67;;;;;;;22.12;49.88;99829.75;10425519;28;20160;-66
2021/09/27 14:28:22;;;;;;;5.60;3.47;;;;;;;22.12;49.66;99830.59;10424686;28;20049;-66
2021/09/27 14:33:26;;;;;;;4.70;3.40;;;;;;;22.05;49.67;99818.13;10425468;28;20049;-66
2021/09/27 14:38:28;;;;;;;4.43;3.33;;;;;;;21.99;49.61;99818.72;10424452;28;20057;-66
2021/09/27 14:43:30;;;;;;;10.25;3.40;;;;;;;21.98;50.01;99809.09;10424986;28;20085;-66
2021/09/27 14:48:32;;;;;;;9.13;3.30;;;;;;;22.20;49.56;99801.28;10424294;28;20049;-66
2021/09/27 14:53:34;;;;;;;7.00;3.22;;;;;;;22.09;49.64;99816.78;10423541;28;20053;-67
2021/09/27 14:58:36;;;;;;;5.30;3.10;;;;;;;21.92;49.60;99816.75;10425129;28;20057;-67
2021/09/27 15:03:38;;;;;;;6.20;3.53;;;;;;;21.79;50.24;99829.72;10423794;28;20091;-67
2021/09/27 15:08:39;;;;;;;6.32;3.42;;;;;;;21.64;50.74;99851.84;10424390;28;20480;-67
2021/09/27 15:13:42;;;;;;;5.13;3.17;;;;;;;21.58;50.89;99853.31;10424542;28;20057;-67
2021/09/27 15:18:46;;;;;;;4.68;3.00;;;;;;;21.40;51.17;99854.44;10423810;28;21872;-67
2021/09/27 15:23:48;;;;;;;4.88;2.80;;;;;;;21.45;51.20;99858.31;10422982;28;20063;-67
2021/09/27 15:28:51;;;;;;;7.07;2.83;;;;;;;21.40;50.90;99865.91;10423909;28;20309;-67
2021/09/27 15:33:57;;;;;;;5.72;2.80;;;;;;;21.44;51.60;99869.91;10423951;28;20049;-68
2021/09/27 15:39:01;;;;;;;6.50;3.10;;;;;;;21.41;51.33;99869.41;10423527;28;20087;-67
2021/09/27 15:44:06;;;;;;;4.57;2.60;;;;;;;21.43;50.77;99880.75;10422295;28;20052;-67
2021/09/27 15:49:09;;;;;;;5.55;2.72;;;;;;;21.48;50.96;99865.94;10430682;28;20307;-68
2021/09/27 15:54:13;;;;;;;4.65;2.58;;;;;;;21.58;50.99;99865.78;10429498;28;20080;-67
2021/09/27 15:59:15;;;;;;;6.55;2.58;;;;;;;21.69;50.55;99879.63;10430922;28;20048;-67
2021/09/27 16:04:17;;;;;;;6.03;3.00;;;;;;;21.77;50.20;99879.66;10430423;28;20428;-68
2021/09/27 16:09:20;;;;;;;7.07;3.00;;;;;;;21.71;50.76;99882.13;10430541;28;20144;-68
2021/09/27 16:14:22;;;;;;;6.47;2.60;;;;;;;21.74;51.37;99879.16;10427969;28;20412;-67
2021/09/27 16:19:24;;;;;;;4.85;2.90;;;;;;;21.49;51.57;99877.44;10426903;28;20053;-67
2021/09/27 16:24:25;;;;;;;4.93;2.50;;;;;;;21.21;52.22;99865.34;10429937;28;20055;-67
2021/09/27 16:29:27;;;;;;;4.80;2.80;;;;;;;21.08;52.69;99877.25;10430692;28;20055;-67
2021/09/27 16:34:31;;;;;;;8.35;2.53;;;;;;;21.00;53.18;99879.88;10429911;28;20059;-67
2021/09/27 16:39:34;;;;;;;5.35;2.50;;;;;;;20.80;52.69;99882.94;10444916;28;20530;-67
2021/09/27 16:44:39;;;;;;;6.68;2.30;;;;;;;20.73;53.54;99881.88;10429106;28;20049;-68
2021/09/27 16:49:44;;;;;;;4.30;2.50;;;;;;;20.54;53.94;99887.41;10428541;28;20060;-67
2021/09/27 16:54:46;;;;;;;5.97;2.60;;;;;;;20.38;54.47;99893.41;10428502;28;20413;-68
2021/09/27 16:59:49;;;;;;;5.38;2.40;;;;;;;20.22;55.27;99898.59;10417368;28;20908;-67
2021/09/27 17:04:51;;;;;;;5.43;2.30;;;;;;;19.99;56.49;99900.06;10425570;28;20041;-67
2021/09/27 17:09:53;;;;;;;4.95;2.78;;;;;;;19.91;57.30;99914.09;10425495;28;20079;-67
2021/09/27 17:20:00;;;;;;;7.05;2.75;;;;;;;19.71;58.42;99915.19;10424116;28;20049;-67
2021/09/27 17:25:04;;;;;;;6.45;2.80;;;;;;;19.61;58.91;99911.75;10426063;28;20049;-68
2021/09/27 17:30:07;;;;;;;5.22;2.80;;;;;;;19.56;59.31;99914.03;10423972;28;20489;-64
2021/09/27 17:35:09;;;;;;;5.25;2.88;;;;;;;19.51;60.03;99918.94;10424213;28;20049;-64
2021/09/27 17:40:12;;;;;;;6.38;3.13;;;;;;;19.46;60.21;99921.19;10425013;28;20673;-63
2021/09/27 17:45:15;;;;;;;5.22;2.80;;;;;;;19.33;59.74;99926.03;10421582;28;20200;-63
2021/09/27 17:50:17;;;;;;;6.10;3.08;;;;;;;19.34;60.38;99932.97;10421099;28;20236;-63
2021/09/27 17:55:19;;;;;;;5.20;3.33;;;;;;;19.32;60.43;99933.13;10423076;28;20064;-63
2021/09/27 18:00:21;;;;;;;8.27;3.95;;;;;;;19.26;60.60;99933.72;10417638;28;20601;-63
2021/09/27 18:05:23;;;;;;;9.02;5.05;;;;;;;19.24;61.45;99927.72;10424346;28;20635;-63
2021/09/27 18:10:25;;;;;;;21.73;11.68;;;;;;;19.05;61.09;99933.13;10422825;28;20412;-63
2021/09/27 18:15:27;;;;;;;7.32;4.28;;;;;;;19.06;61.72;99942.75;10422522;28;20048;-61
2021/09/27 18:20:30;;;;;;;8.10;3.85;;;;;;;19.09;61.70;99947.78;10424728;28;20393;-63
2021/09/27 18:25:32;;;;;;;7.18;3.78;;;;;;;18.92;62.46;99966.19;10421303;28;20045;-62
2021/09/27 18:30:35;;;;;;;6.07;3.63;;;;;;;18.94;63.05;99998.69;10423009;28;20084;-63
2021/09/27 18:35:38;;;;;;;6.60;3.40;;;;;;;18.75;62.70;100010.16;10424533;28;20055;-63
2021/09/27 18:40:42;;;;;;;8.18;3.78;;;;;;;18.59;63.48;100009.88;10426057;28;20966;-63
2021/09/27 18:45:44;;;;;;;6.70;3.80;;;;;;;18.51;63.36;100025.66;10424740;28;20045;-64
2021/09/27 18:50:50;;;;;;;6.82;3.50;;;;;;;18.54;63.72;100030.69;10424998;28;20497;-63
2021/09/27 18:55:52;;;;;;;7.40;3.03;;;;;;;18.48;63.53;100052.44;10424412;28;20280;-63
2021/09/27 19:00:56;;;;;;;4.05;2.13;;;;;;;18.14;62.27;100085.50;10425035;28;20049;-63
2021/09/27 19:05:58;;;;;;;3.70;1.70;;;;;;;17.28;61.34;100100.97;10425699;28;20088;-63
2021/09/27 19:11:04;;;;;;;6.25;1.30;;;;;;;16.61;61.33;100113.69;10425393;28;20061;-63
2021/09/27 19:16:09;;;;;;;2.60;1.27;;;;;;;16.28;60.72;100116.38;10421890;28;20051;-63
2021/09/27 19:21:20;;;;;;;6.07;1.33;;;;;;;15.92;60.59;100130.66;10428402;28;20436;-62
2021/09/27 19:26:26;;;;;;;5.75;1.48;;;;;;;15.83;61.31;100141.97;10432523;28;20308;-63
2021/09/27 19:31:28;;;;;;;6.70;1.85;;;;;;;15.83;60.55;100163.91;10431953;28;20215;-63
2021/09/27 19:36:30;;;;;;;15.80;7.97;;;;;;;15.82;60.38;100167.47;10429024;28;20071;-62
2021/09/27 19:41:33;;;;;;;5.88;2.00;;;;;;;15.69;60.27;100193.13;10427955;28;20783;-63
2021/09/27 19:46:37;;;;;;;9.52;2.28;;;;;;;15.49;61.98;100216.66;10430761;28;20051;-63
2021/09/27 19:51:39;;;;;;;5.95;2.10;;;;;;;15.31;62.13;100210.97;10432181;28;20060;-63
2021/09/27 19:56:40;;;;;;;3.60;1.30;;;;;;;15.35;62.08;100222.94;10429546;28;20786;-63
2021/09/27 20:01:42;;;;;;;2.92;1.20;;;;;;;15.47;61.82;100237.84;10429165;28;20056;-63
2021/09/27 20:06:44;;;;;;;3.80;1.38;;;;;;;15.34;61.91;100272.22;10430925;28;20041;-63
2021/09/27 20:11:45;;;;;;;4.22;1.40;;;;;;;15.26;62.30;100289.53;10430290;28;20059;-63
2021/09/27 20:16:47;;;;;;;6.47;1.48;;;;;;;15.08;62.29;100290.88;10431550;28;20051;-63
2021/09/27 20:21:49;;;;;;;3.53;1.20;;;;;;;15.12;62.49;100294.97;10429291;28;20622;-63
2021/09/27 20:26:50;;;;;;;3.90;1.20;;;;;;;15.14;63.04;100293.06;10429601;28;20041;-63
2021/09/27 20:31:52;;;;;;;3.42;1.25;;;;;;;15.13;62.87;100294.00;10423070;28;20449;-63
2021/09/27 20:36:54;;;;;;;4.60;1.40;;;;;;;15.19;63.38;100283.84;10427488;28;20053;-63
2021/09/27 20:41:56;;;;;;;3.35;1.20;;;;;;;15.27;63.43;100297.31;10427244;28;20188;-63
2021/09/27 20:46:58;;;;;;;4.75;1.75;;;;;;;15.30;63.28;100288.34;10427710;28;20049;-63
2021/09/27 20:52:00;;;;;;;4.07;1.38;;;;;;;15.29;63.31;100316.50;10406128;28;20138;-63
2021/09/27 20:57:02;;;;;;;7.20;1.58;;;;;;;15.23;62.93;100331.91;10423859;28;20044;-63
2021/09/27 21:02:04;;;;;;;6.03;1.70;;;;;;;15.02;63.77;100333.47;10426204;28;20419;-63
2021/09/27 21:07:06;;;;;;;7.93;1.40;;;;;;;15.04;63.62;100327.09;10424232;28;20045;-63
2021/09/27 21:12:08;;;;;;;4.75;1.50;;;;;;;15.24;63.57;100333.59;10423200;28;20051;-63
2021/09/27 21:17:14;;;;;;;6.97;1.40;;;;;;;15.24;63.63;100344.97;10426623;28;20052;-63
2021/09/27 21:22:16;;;;;;;6.15;1.50;;;;;;;15.28;63.84;100366.69;10426088;28;20333;-63
2021/09/27 21:27:17;;;;;;;4.03;1.50;;;;;;;15.26;63.65;100352.78;10426484;28;20041;-62
2021/09/27 21:32:19;;;;;;;8.32;1.58;;;;;;;15.27;63.54;100349.16;10424713;28;20162;-63
2021/09/27 21:37:21;;;;;;;4.78;1.40;;;;;;;15.25;63.31;100351.06;10422980;28;20044;-63
2021/09/27 21:42:23;;;;;;;4.85;1.50;;;;;;;15.30;63.44;100367.41;10425983;28;21117;-63
2021/09/27 21:47:25;;;;;;;6.05;1.50;;;;;;;15.28;63.60;100356.97;10423321;28;20055;-63
2021/09/27 21:52:27;;;;;;;6.50;1.40;;;;;;;15.14;64.19;100364.19;10427113;28;20053;-64
2021/09/27 21:57:28;;;;;;;7.32;1.55;;;;;;;15.15;64.18;100363.22;10425186;28;20048;-63
2021/09/27 22:02:45;;;;;;;7.85;1.33;;;;;;;15.01;64.01;100353.69;10422960;28;20057;-62
2021/09/27 22:07:47;;;;;;;5.97;1.58;;;;;;;15.18;64.04;100360.38;10424929;28;20053;-63
2021/09/27 22:12:50;;;;;;;4.50;1.50;;;;;;;15.14;63.67;100372.09;10426646;28;20052;-63
2021/09/27 22:17:54;;;;;;;4.03;1.40;;;;;;;14.92;64.22;100378.03;10425930;28;20428;-62
2021/09/27 22:22:57;;;;;;;6.93;1.60;;;;;;;14.84;64.38;100382.19;10424730;28;20357;-62
2021/09/27 22:28:00;;;;;;;4.40;1.50;;;;;;;14.84;64.11;100383.00;10425020;28;20053;-63
2021/09/27 22:33:02;;;;;;;3.80;1.42;;;;;;;14.81;64.02;100400.81;10424908;28;20066;-63
2021/09/27 22:38:04;;;;;;;6.80;1.80;;;;;;;14.50;64.38;100396.81;10426043;28;20098;-63
2021/09/27 22:43:05;;;;;;;7.40;1.85;;;;;;;14.34;64.68;100417.19;10425469;28;20055;-63
2021/09/27 22:48:07;;;;;;;3.83;1.35;;;;;;;14.23;65.14;100414.44;10425549;28;20063;-63
2021/09/27 22:53:08;;;;;;;9.32;1.70;;;;;;;14.19;65.61;100419.06;10425633;28;20048;-63
2021/09/27 22:58:11;;;;;;;4.88;1.70;;;;;;;14.19;65.49;100434.84;10447013;28;20509;-63
2021/09/27 23:03:12;;;;;;;6.05;1.60;;;;;;;14.20;65.82;100443.59;10432384;28;20051;-63
2021/09/27 23:08:14;;;;;;;6.47;1.70;;;;;;;14.25;65.55;100437.06;10432446;28;20080;-63
2021/09/27 23:13:16;;;;;;;4.60;1.60;;;;;;;14.22;65.17;100431.19;10431415;28;20055;-63
2021/09/27 23:18:18;;;;;;;3.63;1.63;;;;;;;14.19;65.34;100450.63;10432773;28;20051;-63
2021/09/27 23:23:19;;;;;;;4.10;1.50;;;;;;;13.86;65.98;100465.97;10433211;28;20095;-63
2021/09/27 23:28:21;;;;;;;6.25;1.60;;;;;;;13.71;66.37;100467.00;10432246;28;20079;-63
2021/09/27 23:33:23;;;;;;;5.63;1.48;;;;;;;13.71;66.32;100473.09;10430535;28;20048;-63
2021/09/27 23:38:25;;;;;;;5.97;1.60;;;;;;;13.73;66.38;100478.25;10432414;28;20519;-63
2021/09/27 23:43:27;;;;;;;6.47;1.63;;;;;;;13.69;66.41;100485.50;10430755;28;20051;-63